Time;durP1;ratioP1;P1;durP2;ratioP2;P2;SDS_P1;SDS_P2;PMS_P1;PMS_P2;Temp;Humidity;BMP_temperature;BMP_pressure;BME280_temperature;BME280_humidity;BME280_pressure;Samples;Min_cycle;Max_cycle;Signal;HPM_P1;HPM_P2
2022/05/03 00:01:56;;;;;;;7.07;4.60;;;8.50;99.90;;;;;;5111251;28;20051;-65
2022/05/03 00:04:51;;;;;;;6.90;4.65;;;8.50;99.90;;;;;;5111239;28;20245;-65
2022/05/03 00:07:26;;;;;;;9.45;4.97;;;8.50;99.90;;;;;;5111359;28;20039;-65
2022/05/03 00:10:06;;;;;;;8.18;4.28;;;8.50;99.90;;;;;;5110964;28;20724;-65
2022/05/03 00:12:48;;;;;;;9.10;4.25;;;8.50;99.90;;;;;;5111317;28;20097;-65
2022/05/03 00:15:16;;;;;;;6.60;3.95;;;8.40;99.90;;;;;;5111018;28;20036;-65
2022/05/03 00:17:42;;;;;;;5.78;4.20;;;8.30;99.90;;;;;;5114148;28;20047;-65
2022/05/03 00:20:09;;;;;;;6.20;4.38;;;8.30;99.90;;;;;;5115191;28;20043;-65
2022/05/03 00:22:35;;;;;;;7.10;4.30;;;8.30;99.90;;;;;;5115508;28;20111;-65
2022/05/03 00:25:01;;;;;;;6.13;4.38;;;8.40;99.90;;;;;;5096452;28;20040;-65
2022/05/03 00:27:28;;;;;;;8.43;4.30;;;8.30;99.90;;;;;;5115004;28;20483;-65
2022/05/03 00:29:55;;;;;;;5.82;4.20;;;8.30;99.90;;;;;;5114932;28;20043;-65
2022/05/03 00:32:21;;;;;;;7.45;5.90;;;8.20;99.90;;;;;;5115084;28;20078;-65
2022/05/03 00:34:51;;;;;;;5.63;4.45;;;8.20;99.90;;;;;;5115215;28;20051;-66
2022/05/03 00:37:17;;;;;;;6.03;4.57;;;8.20;99.90;;;;;;5114272;28;20173;-65
2022/05/03 00:39:43;;;;;;;5.95;4.43;;;7.90;99.90;;;;;;5113027;28;20515;-65
2022/05/03 00:42:28;;;;;;;7.53;4.63;;;7.90;99.90;;;;;;5113154;28;20122;-65
2022/05/03 00:45:31;;;;;;;5.85;3.83;;;8.10;99.90;;;;;;5113003;28;20534;-66
2022/05/03 00:48:18;;;;;;;6.00;4.07;;;8.10;99.90;;;;;;5114261;28;20035;-65
2022/05/03 00:50:54;;;;;;;6.68;4.30;;;8.00;99.90;;;;;;5114078;28;20050;-66
2022/05/03 00:53:50;;;;;;;6.63;4.85;;;8.10;99.90;;;;;;5114291;28;20043;-65
2022/05/03 00:56:29;;;;;;;8.15;5.03;;;7.90;99.90;;;;;;5114210;28;20050;-67
2022/05/03 00:59:02;;;;;;;5.80;4.50;;;7.90;99.90;;;;;;5113908;28;20077;-65
2022/05/03 01:01:59;;;;;;;8.20;4.07;;;7.90;99.90;;;;;;5114668;28;20445;-65
2022/05/03 01:04:39;;;;;;;6.63;4.55;;;7.90;99.90;;;;;;5104435;28;20207;-65
2022/05/03 01:07:46;;;;;;;6.97;4.55;;;7.90;99.90;;;;;;5095878;28;20043;-65
2022/05/03 01:10:22;;;;;;;5.93;4.22;;;7.80;99.90;;;;;;5111945;28;20726;-65
2022/05/03 01:13:03;;;;;;;7.30;4.25;;;7.80;99.90;;;;;;5114523;28;20523;-67
2022/05/03 01:15:37;;;;;;;4.97;4.03;;;7.80;99.90;;;;;;5114229;28;20051;-65
2022/05/03 01:18:21;;;;;;;7.55;5.32;;;7.80;99.90;;;;;;5114149;28;20044;-65
2022/05/03 01:21:09;;;;;;;7.18;4.88;;;7.70;99.90;;;;;;5114026;28;20075;-65
2022/05/03 01:23:52;;;;;;;7.07;4.72;;;7.70;99.90;;;;;;5114178;28;20043;-66
2022/05/03 01:26:32;;;;;;;5.35;4.25;;;7.70;99.90;;;;;;5113705;28;20118;-65
2022/05/03 01:29:14;;;;;;;7.15;4.38;;;7.70;99.90;;;;;;5112520;28;20035;-65
2022/05/03 01:31:41;;;;;;;6.80;4.72;;;7.70;99.90;;;;;;5113040;28;20049;-65
2022/05/03 01:34:10;;;;;;;7.15;4.88;;;7.80;99.90;;;;;;5113802;28;20044;-64
2022/05/03 01:37:33;;;;;;;7.53;4.65;;;7.70;99.90;;;;;;5113479;28;20039;-65
2022/05/03 01:40:07;;;;;;;7.47;5.13;;;7.50;99.90;;;;;;5069654;28;20052;-65
2022/05/03 01:42:51;;;;;;;5.55;4.32;;;7.50;99.90;;;;;;5070199;28;20040;-66
2022/05/03 01:45:30;;;;;;;8.95;5.35;;;7.50;99.90;;;;;;5070721;28;20123;-64
2022/05/03 01:50:18;;;;;;;9.70;4.88;;;7.50;99.90;;;;;;5070635;28;20033;-65
2022/05/03 01:51:34;;;;;;;5.85;4.57;;;7.40;99.90;;;;;;5070465;28;20083;-65
2022/05/03 01:54:18;;;;;;;5.65;4.45;;;7.30;99.90;;;;;;5070481;28;20135;-65
2022/05/03 01:57:09;;;;;;;8.38;3.95;;;7.20;99.90;;;;;;5070222;28;20476;-65
2022/05/03 01:59:55;;;;;;;7.07;4.68;;;7.20;99.90;;;;;;5068907;28;20047;-66
2022/05/03 02:02:39;;;;;;;5.32;3.85;;;7.20;99.90;;;;;;5070420;28;20084;-65
2022/05/03 02:05:16;;;;;;;5.50;3.88;;;7.30;99.90;;;;;;5070209;28;20040;-65
2022/05/03 02:07:55;;;;;;;6.38;4.00;;;7.20;99.90;;;;;;5070080;28;20052;-65
2022/05/03 02:10:48;;;;;;;6.47;4.00;;;7.20;99.90;;;;;;5090194;28;20418;-64
2022/05/03 02:13:28;;;;;;;6.60;4.03;;;7.10;99.90;;;;;;5113560;28;20048;-66
2022/05/03 02:16:07;;;;;;;5.85;4.70;;;7.00;99.90;;;;;;5112959;28;20047;-64
2022/05/03 02:18:53;;;;;;;6.60;4.53;;;7.00;99.90;;;;;;5112462;28;20039;-65
2022/05/03 02:21:24;;;;;;;8.65;5.90;;;7.00;99.90;;;;;;5111813;28;20394;-65
2022/05/03 02:23:50;;;;;;;5.57;4.28;;;7.00;99.90;;;;;;5094895;28;20118;-65
2022/05/03 02:26:49;;;;;;;6.68;5.00;;;7.00;99.90;;;;;;5113007;28;20184;-65
2022/05/03 02:29:25;;;;;;;6.10;4.28;;;6.90;99.90;;;;;;5112611;28;20089;-65
2022/05/03 02:32:03;;;;;;;7.80;5.35;;;6.90;99.90;;;;;;5112822;28;20046;-65
2022/05/03 02:34:53;;;;;;;10.63;5.63;;;6.90;99.90;;;;;;5113184;28;20031;-65
2022/05/03 02:37:23;;;;;;;8.32;5.15;;;6.80;99.90;;;;;;5112424;28;20043;-65
2022/05/03 02:40:03;;;;;;;7.32;5.43;;;6.90;99.90;;;;;;5112306;28;20403;-65
2022/05/03 02:42:31;;;;;;;8.65;5.43;;;6.90;99.90;;;;;;5112720;28;20039;-65
2022/05/03 02:44:59;;;;;;;9.70;6.32;;;6.90;99.90;;;;;;5112850;28;20044;-66
2022/05/03 02:47:35;;;;;;;8.55;5.80;;;6.90;99.90;;;;;;5111806;28;20117;-65
2022/05/03 02:50:16;;;;;;;9.60;5.55;;;6.90;99.90;;;;;;5112229;28;20476;-66
2022/05/03 02:53:07;;;;;;;8.70;5.53;;;6.80;99.90;;;;;;5112511;28;20050;-65
2022/05/03 02:55:50;;;;;;;10.77;6.22;;;6.90;99.90;;;;;;5112378;28;20089;-65
2022/05/03 02:58:37;;;;;;;7.10;5.65;;;6.90;99.90;;;;;;5112035;28;20048;-65
2022/05/03 03:04:09;;;;;;;9.32;5.53;;;6.70;99.90;;;;;;5112461;28;20055;-66
2022/05/03 03:06:37;;;;;;;9.30;5.38;;;6.80;99.90;;;;;;5111448;28;20570;-66
2022/05/03 03:09:03;;;;;;;9.65;6.10;;;6.80;99.90;;;;;;5111828;28;20428;-66
2022/05/03 03:11:39;;;;;;;9.00;5.85;;;6.70;99.90;;;;;;5111059;28;20048;-65
2022/05/03 03:14:32;;;;;;;9.73;5.57;;;6.70;99.90;;;;;;5112386;28;20172;-64
2022/05/03 03:17:06;;;;;;;8.05;5.38;;;6.60;99.90;;;;;;5111901;28;20035;-65
2022/05/03 03:19:50;;;;;;;13.82;6.05;;;6.60;99.90;;;;;;5111447;28;20036;-66
2022/05/03 03:22:16;;;;;;;10.05;6.57;;;6.60;99.90;;;;;;5111093;28;20043;-65
2022/05/03 03:24:42;;;;;;;9.10;6.68;;;6.60;99.90;;;;;;5110617;28;20039;-65
2022/05/03 03:27:11;;;;;;;11.70;6.78;;;6.60;99.90;;;;;;5110502;28;20036;-65
2022/05/03 03:29:39;;;;;;;10.90;6.85;;;6.60;99.90;;;;;;5111431;28;20052;-65
2022/05/03 03:32:09;;;;;;;10.90;6.93;;;6.60;99.90;;;;;;5111621;28;20043;-65
2022/05/03 03:34:39;;;;;;;12.52;7.38;;;6.50;99.90;;;;;;5111759;28;20522;-65
2022/05/03 03:37:07;;;;;;;9.55;6.20;;;6.50;99.90;;;;;;5093295;28;20126;-65
2022/05/03 03:39:35;;;;;;;10.38;7.05;;;6.50;99.90;;;;;;5111526;28;20035;-65
2022/05/03 03:42:05;;;;;;;9.82;6.57;;;6.50;99.90;;;;;;5111581;28;20089;-65
2022/05/03 03:44:31;;;;;;;12.63;7.72;;;6.40;99.90;;;;;;5111522;28;20072;-65
2022/05/03 03:47:01;;;;;;;11.80;8.32;;;6.50;99.90;;;;;;5110904;28;20035;-65
2022/05/03 03:49:28;;;;;;;12.77;7.70;;;6.60;99.90;;;;;;5111008;28;20372;-65
2022/05/03 03:51:54;;;;;;;11.13;7.07;;;6.50;99.90;;;;;;5110306;28;20120;-66
2022/05/03 03:54:21;;;;;;;10.60;7.70;;;6.40;99.90;;;;;;5107870;28;20404;-66
2022/05/03 03:56:49;;;;;;;9.38;5.75;;;6.40;99.90;;;;;;5108367;28;20036;-66
2022/05/03 03:59:14;;;;;;;13.73;5.82;;;6.40;99.90;;;;;;5108982;28;20047;-65
2022/05/03 04:01:41;;;;;;;12.25;6.25;;;6.30;99.90;;;;;;5111558;28;20043;-66
2022/05/03 04:04:08;;;;;;;10.35;6.18;;;6.20;99.90;;;;;;5110590;28;20490;-65
2022/05/03 04:06:34;;;;;;;9.40;5.85;;;6.30;99.90;;;;;;5110294;28;20038;-66
2022/05/03 04:09:00;;;;;;;10.10;6.07;;;6.20;99.90;;;;;;5110646;28;20043;-65
2022/05/03 04:11:26;;;;;;;10.43;6.43;;;6.20;99.90;;;;;;5111353;28;20057;-66
2022/05/03 04:13:52;;;;;;;11.35;6.57;;;6.30;99.90;;;;;;5111405;28;20074;-65
2022/05/03 04:16:18;;;;;;;11.90;5.93;;;6.30;99.90;;;;;;5111550;28;20043;-65
2022/05/03 04:18:47;;;;;;;10.75;7.32;;;6.30;99.90;;;;;;5111334;28;20031;-65
2022/05/03 04:21:17;;;;;;;10.45;6.90;;;6.30;99.90;;;;;;5111404;28;20094;-65
2022/05/03 04:23:43;;;;;;;9.95;6.40;;;6.30;99.90;;;;;;5111373;28;20035;-65
2022/05/03 04:26:09;;;;;;;9.18;6.55;;;6.30;99.90;;;;;;5092128;28;20040;-66
2022/05/03 04:28:35;;;;;;;11.77;6.93;;;6.30;99.90;;;;;;5110718;28;20050;-64
2022/05/03 04:31:01;;;;;;;12.80;7.15;;;6.30;99.90;;;;;;5111173;28;20092;-66
2022/05/03 04:33:26;;;;;;;10.75;7.15;;;6.30;99.90;;;;;;5111169;28;20135;-65
2022/05/03 04:35:52;;;;;;;8.25;6.47;;;6.40;99.90;;;;;;5110916;28;20040;-64
2022/05/03 04:38:17;;;;;;;10.73;6.68;;;6.40;99.90;;;;;;5110630;28;20116;-65
2022/05/03 04:40:43;;;;;;;12.00;7.43;;;6.50;99.90;;;;;;5110026;28;20040;-65
2022/05/03 04:43:09;;;;;;;10.43;7.22;;;6.50;99.90;;;;;;5110564;28;20071;-65
2022/05/03 04:45:35;;;;;;;11.80;7.57;;;6.50;99.90;;;;;;5109895;28;20114;-65
2022/05/03 04:48:00;;;;;;;14.15;7.50;;;6.60;99.90;;;;;;5110813;28;20124;-65
2022/05/03 04:50:26;;;;;;;16.75;7.18;;;6.60;99.90;;;;;;5110672;28;20039;-65
2022/05/03 04:52:51;;;;;;;11.95;7.95;;;6.80;99.90;;;;;;5110800;28;20127;-66
2022/05/03 04:55:17;;;;;;;10.98;7.35;;;6.80;99.90;;;;;;5110859;28;20075;-65
2022/05/03 04:57:43;;;;;;;12.93;7.90;;;6.80;99.90;;;;;;5110571;28;20089;-65
2022/05/03 05:00:09;;;;;;;10.23;7.72;;;6.90;99.90;;;;;;5110161;28;20049;-65
2022/05/03 05:02:34;;;;;;;14.27;8.15;;;6.90;99.90;;;;;;5111340;28;20047;-65
2022/05/03 05:05:00;;;;;;;17.60;9.25;;;7.10;99.90;;;;;;5114597;28;20499;-65
2022/05/03 05:07:25;;;;;;;13.73;7.97;;;7.20;99.90;;;;;;5113674;28;20035;-64
2022/05/03 05:10:52;;;;;;;9.98;7.45;;;7.30;99.90;;;;;;5113664;28;20035;-66
2022/05/03 05:12:46;;;;;;;14.40;8.48;;;7.40;99.90;;;;;;5096117;28;20050;-66
2022/05/03 05:15:11;;;;;;;12.63;8.70;;;7.60;99.90;;;;;;5114528;28;20040;-65
2022/05/03 05:17:37;;;;;;;21.15;8.60;;;7.70;99.90;;;;;;5114289;28;20043;-65
2022/05/03 05:20:03;;;;;;;11.20;8.18;;;7.80;99.90;;;;;;5114385;28;20504;-66
2022/05/03 05:22:28;;;;;;;16.63;9.32;;;7.90;99.90;;;;;;5114280;28;20118;-66
2022/05/03 05:24:54;;;;;;;15.77;10.13;;;8.10;99.90;;;;;;5114784;28;20071;-66
2022/05/03 05:27:20;;;;;;;13.55;9.55;;;8.20;99.90;;;;;;5114209;28;20043;-65
2022/05/03 05:29:45;;;;;;;12.70;8.65;;;8.20;99.90;;;;;;5114070;28;20043;-65
2022/05/03 05:32:11;;;;;;;13.27;9.68;;;8.40;99.90;;;;;;5113972;28;20038;-65
2022/05/03 05:34:36;;;;;;;14.63;10.43;;;8.50;99.90;;;;;;5114187;28;20496;-65
2022/05/03 05:37:02;;;;;;;15.45;10.23;;;8.60;99.90;;;;;;5112913;28;20040;-65
2022/05/03 05:39:27;;;;;;;17.58;10.30;;;8.70;99.90;;;;;;5113485;28;20377;-65
2022/05/03 05:41:58;;;;;;;18.73;11.15;;;8.90;99.90;;;;;;5113882;28;20507;-65
2022/05/03 05:44:25;;;;;;;14.27;10.73;;;9.00;99.90;;;;;;5113929;28;20035;-65
2022/05/03 05:46:52;;;;;;;22.00;12.00;;;9.00;99.90;;;;;;5113528;28;20385;-65
2022/05/03 05:49:18;;;;;;;19.38;12.57;;;9.20;99.90;;;;;;5113436;28;20039;-65
2022/05/03 05:51:45;;;;;;;20.73;12.80;;;9.30;99.90;;;;;;5113741;28;20538;-65
2022/05/03 05:54:10;;;;;;;19.58;13.00;;;9.40;99.90;;;;;;5113609;28;20047;-66
2022/05/03 05:56:36;;;;;;;24.00;14.32;;;9.60;99.90;;;;;;5113687;28;20039;-65
2022/05/03 05:59:02;;;;;;;22.92;15.38;;;9.70;99.90;;;;;;5113249;28;20044;-65
2022/05/03 06:01:40;;;;;;;25.55;15.68;;;9.70;99.90;;;;;;5113535;28;20042;-66
2022/05/03 06:04:06;;;;;;;24.05;16.30;;;9.80;99.90;;;;;;5113384;28;20082;-65
2022/05/03 06:06:32;;;;;;;27.58;17.77;;;10.00;99.90;;;;;;5112953;28;20075;-65
2022/05/03 06:09:04;;;;;;;23.95;16.92;;;9.90;99.90;;;;;;5113172;28;20039;-65
2022/05/03 06:11:29;;;;;;;25.10;16.92;;;9.80;99.90;;;;;;5113589;28;20117;-65
2022/05/03 06:13:55;;;;;;;26.45;17.27;;;9.80;99.90;;;;;;5113186;28;20666;-65
2022/05/03 06:16:21;;;;;;;23.90;17.40;;;9.80;99.90;;;;;;5112172;28;20464;-66
2022/05/03 06:18:46;;;;;;;35.40;20.45;;;9.90;99.90;;;;;;5112408;28;20073;-65
2022/05/03 06:21:12;;;;;;;36.58;21.88;;;10.00;99.90;;;;;;5112134;28;20040;-65
2022/05/03 06:23:38;;;;;;;45.33;22.65;;;9.90;99.90;;;;;;5113283;28;20184;-65
2022/05/03 06:26:09;;;;;;;44.70;21.95;;;10.00;99.90;;;;;;5113086;28;20110;-65
2022/05/03 06:28:35;;;;;;;58.70;24.38;;;10.10;99.90;;;;;;5112838;28;20031;-65
2022/05/03 06:31:01;;;;;;;49.25;24.30;;;10.10;99.90;;;;;;5112964;28;20052;-66
2022/05/03 06:33:26;;;;;;;42.92;24.65;;;10.10;99.90;;;;;;5112948;28;20046;-65
2022/05/03 06:35:52;;;;;;;47.25;23.95;;;10.20;99.90;;;;;;5112925;28;20089;-67
2022/05/03 06:38:18;;;;;;;59.67;26.77;;;10.20;99.90;;;;;;5112207;28;20035;-65
2022/05/03 06:40:44;;;;;;;47.70;26.83;;;10.20;99.90;;;;;;5111935;28;20042;-65
2022/05/03 06:43:09;;;;;;;45.17;26.70;;;10.30;99.90;;;;;;5112731;28;20492;-64
2022/05/03 06:45:35;;;;;;;44.28;27.02;;;10.30;99.90;;;;;;5112671;28;20518;-66
2022/05/03 06:48:01;;;;;;;43.47;26.30;;;10.40;99.90;;;;;;5112257;28;20035;-66
2022/05/03 06:50:29;;;;;;;44.92;25.75;;;10.50;99.90;;;;;;5112599;28;20050;-65
2022/05/03 06:52:55;;;;;;;50.10;26.70;;;10.50;99.90;;;;;;5112558;28;20142;-66
2022/05/03 06:55:21;;;;;;;41.75;25.85;;;10.50;99.90;;;;;;5112280;28;20131;-66
2022/05/03 06:57:48;;;;;;;50.40;27.48;;;10.50;99.90;;;;;;5112321;28;20122;-65
2022/05/03 07:00:14;;;;;;;51.03;27.33;;;10.50;99.90;;;;;;5111850;28;20039;-65
2022/05/03 07:02:41;;;;;;;45.95;27.42;;;10.60;99.90;;;;;;5094209;28;20092;-66
2022/05/03 07:05:07;;;;;;;49.72;28.02;;;10.60;99.90;;;;;;5112040;28;20043;-67
2022/05/03 07:07:33;;;;;;;49.97;27.80;;;10.60;99.90;;;;;;5111642;28;20038;-66
2022/05/03 07:09:59;;;;;;;52.80;29.58;;;10.60;99.90;;;;;;5102019;28;20040;-67
2022/05/03 07:12:25;;;;;;;48.47;28.25;;;10.80;99.90;;;;;;5098728;28;20036;-66
2022/05/03 07:14:51;;;;;;;48.80;28.08;;;10.80;99.90;;;;;;5101746;28;20810;-66
2022/05/03 07:22:45;;;;;;;47.83;26.48;;;10.90;99.90;;;;;;5097929;28;20040;-67
2022/05/03 07:25:11;;;;;;;51.75;26.73;;;10.90;99.90;;;;;;5106027;28;20036;-65
2022/05/03 07:27:37;;;;;;;50.47;26.55;;;11.10;99.90;;;;;;5110440;28;20027;-65
2022/05/03 07:30:03;;;;;;;50.85;27.42;;;11.10;99.90;;;;;;5111764;28;20039;-66
2022/05/03 07:32:29;;;;;;;51.35;28.23;;;11.20;99.90;;;;;;5111848;28;20050;-69
2022/05/03 07:34:54;;;;;;;45.33;24.83;;;11.30;99.90;;;;;;5111993;28;20035;-71
2022/05/03 07:37:20;;;;;;;49.17;27.75;;;11.30;99.90;;;;;;5092460;28;20456;-74
2022/05/03 07:39:45;;;;;;;51.42;27.38;;;11.40;99.90;;;;;;5071732;28;20038;-72
2022/05/03 07:42:11;;;;;;;45.78;26.95;;;11.50;99.90;;;;;;5073021;28;20089;-73
2022/05/03 07:44:37;;;;;;;46.45;26.02;;;11.60;99.90;;;;;;5073294;28;20381;-73
2022/05/03 07:47:03;;;;;;;49.30;26.05;;;11.60;99.90;;;;;;5071837;28;20042;-72
2022/05/03 07:49:28;;;;;;;54.83;25.23;;;11.70;99.90;;;;;;5072627;28;20426;-67
2022/05/03 07:51:54;;;;;;;59.17;28.70;;;11.70;99.90;;;;;;5055233;28;20051;-68
2022/05/03 07:54:20;;;;;;;60.38;28.88;;;11.80;99.90;;;;;;5091309;28;20531;-67
2022/05/03 07:56:46;;;;;;;63.70;28.90;;;11.70;99.90;;;;;;5090800;28;20044;-67
2022/05/03 07:59:12;;;;;;;62.22;27.60;;;11.80;99.90;;;;;;5090583;28;20044;-67
2022/05/03 08:01:40;;;;;;;62.63;28.83;;;11.80;99.90;;;;;;5090454;28;20036;-67
2022/05/03 08:04:06;;;;;;;61.83;29.20;;;11.80;99.90;;;;;;5090986;28;20067;-67
2022/05/03 08:06:32;;;;;;;68.20;29.98;;;11.80;99.90;;;;;;5090735;28;20043;-66
2022/05/03 08:08:57;;;;;;;70.55;30.73;;;11.80;99.90;;;;;;5090309;28;20507;-67
2022/05/03 08:11:24;;;;;;;68.20;30.88;;;11.80;99.90;;;;;;5090733;28;20040;-66
2022/05/03 08:13:52;;;;;;;74.32;29.77;;;11.80;99.90;;;;;;5072616;28;20036;-67
2022/05/03 08:16:22;;;;;;;81.18;32.40;;;11.80;99.90;;;;;;5090716;28;20169;-66
2022/05/03 08:18:48;;;;;;;79.18;30.85;;;11.80;99.90;;;;;;5090418;28;20124;-66
2022/05/03 08:21:15;;;;;;;82.93;32.40;;;11.80;99.90;;;;;;5090614;28;20068;-67
2022/05/03 08:23:41;;;;;;;78.95;32.15;;;11.70;99.90;;;;;;5090546;28;20046;-66
2022/05/03 08:26:06;;;;;;;78.03;29.20;;;11.60;99.90;;;;;;5090350;28;20036;-67
2022/05/03 08:28:33;;;;;;;65.38;28.10;;;11.80;99.90;;;;;;5089950;28;20051;-67
2022/05/03 08:30:59;;;;;;;61.88;29.63;;;11.70;99.90;;;;;;5072442;28;20052;-66
2022/05/03 08:33:26;;;;;;;69.05;27.63;;;11.60;99.90;;;;;;5090764;28;20063;-66
2022/05/03 08:35:51;;;;;;;59.78;27.35;;;11.50;99.90;;;;;;5090371;28;20048;-67
2022/05/03 08:43:46;;;;;;;58.15;25.20;;;11.50;99.90;;;;;;5076594;28;20510;-71
2022/05/03 08:46:12;;;;;;;46.75;21.20;;;11.40;99.90;;;;;;5076176;28;20075;-71
2022/05/03 08:48:42;;;;;;;42.60;21.45;;;11.40;99.90;;;;;;5093095;28;20036;-71
2022/05/03 08:51:13;;;;;;;43.80;21.38;;;11.20;99.90;;;;;;5094308;28;20467;-71
2022/05/03 08:53:40;;;;;;;38.67;20.75;;;11.20;99.90;;;;;;5076274;28;20569;-70
2022/05/03 08:56:06;;;;;;;38.40;20.10;;;11.30;99.90;;;;;;5094455;28;20040;-70
2022/05/03 08:58:32;;;;;;;37.50;19.52;;;11.40;99.90;;;;;;5093790;28;20048;-71
2022/05/03 09:00:58;;;;;;;33.25;18.20;;;11.30;99.90;;;;;;5094230;28;20123;-70
2022/05/03 09:03:24;;;;;;;34.95;17.42;;;11.30;99.90;;;;;;5076160;28;20946;-70
2022/05/03 09:05:52;;;;;;;31.42;17.55;;;11.30;99.90;;;;;;5112994;28;20044;-69
2022/05/03 09:08:23;;;;;;;32.10;16.90;;;11.30;99.90;;;;;;5114133;28;20043;-71
2022/05/03 09:10:49;;;;;;;31.95;16.77;;;11.30;99.90;;;;;;5095540;28;20043;-70
2022/05/03 09:13:18;;;;;;;28.23;15.73;;;11.40;99.90;;;;;;5114048;28;20043;-70
2022/05/03 09:15:47;;;;;;;31.38;15.18;;;11.30;99.90;;;;;;5113633;28;20056;-69
2022/05/03 09:18:29;;;;;;;23.90;14.50;;;11.30;99.90;;;;;;5113405;28;20042;-71
2022/05/03 09:23:50;;;;;;;20.88;11.13;;;11.30;99.90;;;;;;5094489;28;20006;-72
2022/05/03 09:26:26;;;;;;;22.98;10.27;;;11.30;99.90;;;;;;5094933;28;20075;-70
2022/05/03 09:29:08;;;;;;;28.08;13.00;;;11.40;99.90;;;;;;5111960;28;20238;-70
2022/05/03 09:31:41;;;;;;;17.55;10.32;;;11.40;99.90;;;;;;5094088;28;20043;-70
2022/05/03 09:34:19;;;;;;;17.45;9.55;;;11.40;99.90;;;;;;5112847;28;20051;-71
2022/05/03 09:36:50;;;;;;;16.63;8.82;;;11.50;99.90;;;;;;5112989;28;20464;-71
2022/05/03 09:39:25;;;;;;;12.73;7.40;;;11.50;99.90;;;;;;5078299;28;20044;-71
2022/05/03 09:42:15;;;;;;;13.18;6.93;;;11.50;99.90;;;;;;5113094;28;20380;-71
2022/05/03 09:44:58;;;;;;;16.00;7.53;;;11.50;99.90;;;;;;5113910;28;20093;-71
2022/05/03 09:47:26;;;;;;;11.10;6.75;;;11.50;99.90;;;;;;5113760;28;20046;-70
2022/05/03 09:49:51;;;;;;;14.95;7.20;;;11.60;99.90;;;;;;5112555;28;20061;-70
2022/05/03 09:52:29;;;;;;;15.20;7.40;;;11.50;99.90;;;;;;5095471;28;20039;-70
2022/05/03 09:54:59;;;;;;;10.70;6.15;;;11.50;99.90;;;;;;5113670;28;20105;-72
2022/05/03 09:57:27;;;;;;;12.18;6.25;;;11.50;99.90;;;;;;5113313;28;20100;-71
2022/05/03 09:59:54;;;;;;;15.07;7.80;;;11.60;99.90;;;;;;5113106;28;20688;-71
2022/05/03 10:02:25;;;;;;;16.92;6.95;;;11.50;99.90;;;;;;5113384;28;20608;-70
2022/05/03 10:04:56;;;;;;;13.90;6.60;;;11.60;99.90;;;;;;5113424;28;20087;-70
2022/05/03 10:07:22;;;;;;;16.42;7.43;;;11.50;99.90;;;;;;5113036;28;20047;-71
2022/05/03 10:09:48;;;;;;;13.50;6.55;;;11.60;99.90;;;;;;5112897;28;20036;-71
2022/05/03 10:12:15;;;;;;;21.13;7.78;;;11.60;99.90;;;;;;5113199;28;20047;-71
2022/05/03 10:14:42;;;;;;;19.92;7.65;;;11.70;99.90;;;;;;5113209;28;20043;-70
2022/05/03 10:20:38;;;;;;;18.73;8.00;;;11.60;99.90;;;;;;5112015;28;20543;-71
2022/05/03 10:23:16;;;;;;;20.73;8.05;;;11.60;99.90;;;;;;5111048;28;20092;-69
2022/05/03 10:25:42;;;;;;;13.73;7.90;;;11.70;99.90;;;;;;5108051;28;20047;-70
2022/05/03 10:28:08;;;;;;;25.05;8.65;;;11.80;99.90;;;;;;5109807;28;20032;-67
2022/05/03 10:30:34;;;;;;;22.77;8.13;;;11.80;99.90;;;;;;5099265;28;20036;-66
2022/05/03 10:33:19;;;;;;;21.77;9.18;;;11.80;99.90;;;;;;5092096;28;20455;-68
2022/05/03 10:35:48;;;;;;;28.35;10.25;;;11.90;99.90;;;;;;5092046;28;20398;-67
2022/05/03 10:38:14;;;;;;;24.67;8.60;;;11.70;99.90;;;;;;5079754;28;20399;-67
2022/05/03 10:40:42;;;;;;;24.23;9.20;;;11.80;99.90;;;;;;5110257;28;20047;-66
2022/05/03 10:43:13;;;;;;;18.17;8.52;;;11.90;99.90;;;;;;5111699;28;20072;-66
2022/05/03 10:45:52;;;;;;;22.45;8.65;;;11.80;99.90;;;;;;5112028;28;20047;-66
2022/05/03 10:48:22;;;;;;;26.30;10.68;;;11.90;99.90;;;;;;5112372;28;20031;-67
2022/05/03 10:50:50;;;;;;;27.20;7.97;;;11.90;99.90;;;;;;5112323;28;20408;-65
2022/05/03 10:53:17;;;;;;;29.20;8.73;;;11.80;99.90;;;;;;5112328;28;20052;-67
2022/05/03 10:56:18;;;;;;;30.25;8.38;;;11.80;99.90;;;;;;5112367;28;20043;-66
2022/05/03 10:59:05;;;;;;;33.13;8.27;;;11.70;99.90;;;;;;5111802;28;20525;-66
2022/05/03 11:01:32;;;;;;;29.95;8.35;;;11.80;99.90;;;;;;5100805;28;20048;-70
2022/05/03 11:04:06;;;;;;;30.38;7.63;;;11.80;99.90;;;;;;5108714;28;20073;-70
2022/05/03 11:06:37;;;;;;;24.02;7.20;;;11.70;99.90;;;;;;5097795;28;20046;-70
2022/05/03 11:11:40;;;;;;;32.53;8.40;;;11.70;99.90;;;;;;5112204;28;20097;-71
2022/05/03 11:14:24;;;;;;;20.23;8.05;;;11.80;99.90;;;;;;5111840;28;20047;-70
2022/05/03 11:17:05;;;;;;;26.63;8.02;;;11.80;99.90;;;;;;5110150;28;20483;-70
2022/05/03 11:19:36;;;;;;;17.65;6.80;;;11.80;99.90;;;;;;5111518;28;20686;-70
2022/05/03 11:22:09;;;;;;;22.15;5.97;;;11.90;99.90;;;;;;5111901;28;20043;-70
2022/05/03 11:24:36;;;;;;;;;;;11.90;99.90;;;;;;5110870;28;20047;-70
2022/05/03 11:27:05;;;;;;;18.98;5.55;;;11.90;99.90;;;;;;5110581;28;19955;-70
2022/05/03 11:29:48;;;;;;;19.15;5.97;;;12.00;99.90;;;;;;5111549;28;20070;-70
2022/05/03 11:32:15;;;;;;;17.08;5.82;;;11.90;99.90;;;;;;5109728;28;20046;-70
2022/05/03 11:34:42;;;;;;;22.05;5.90;;;12.00;99.90;;;;;;5093196;28;20061;-71
2022/05/03 11:37:08;;;;;;;25.83;6.10;;;12.00;99.90;;;;;;5092056;28;20100;-71
2022/05/03 11:39:37;;;;;;;16.40;5.75;;;12.00;99.90;;;;;;5111464;28;20038;-71
2022/05/03 11:42:09;;;;;;;16.40;5.40;;;12.10;99.90;;;;;;5111445;28;20092;-70
2022/05/03 11:44:35;;;;;;;13.15;5.90;;;12.00;99.90;;;;;;5111655;28;20036;-71
2022/05/03 11:47:03;;;;;;;17.05;6.28;;;12.10;99.90;;;;;;5092091;28;20084;-71
2022/05/03 11:49:31;;;;;;;14.15;5.70;;;12.10;99.90;;;;;;5111447;28;20035;-70
2022/05/03 11:57:33;;;;;;;12.63;5.20;;;12.20;99.90;;;;;;5130384;28;20103;-70
2022/05/03 11:59:59;;;;;;;15.80;6.22;;;12.10;99.90;;;;;;5105235;28;20031;-71
2022/05/03 12:02:27;;;;;;;14.90;5.28;;;12.20;99.90;;;;;;5111122;28;20717;-71
2022/05/03 12:05:19;;;;;;;15.10;5.45;;;12.20;99.90;;;;;;5093018;28;20039;-70
2022/05/03 12:07:53;;;;;;;18.38;5.53;;;12.20;99.90;;;;;;5083299;28;20089;-66
2022/05/03 12:10:30;;;;;;;16.13;4.68;;;12.30;99.90;;;;;;5110570;28;20118;-66
2022/05/03 12:13:17;;;;;;;17.45;5.20;;;12.40;99.90;;;;;;5108888;28;20039;-67
2022/05/03 12:15:49;;;;;;;16.05;4.88;;;12.40;99.90;;;;;;5110995;28;20488;-66
2022/05/03 12:18:19;;;;;;;10.40;4.38;;;12.40;99.90;;;;;;5110803;28;20061;-67
2022/05/03 12:20:52;;;;;;;11.77;4.50;;;12.40;99.90;;;;;;5107900;28;20071;-66
2022/05/03 12:23:23;;;;;;;13.23;4.03;;;12.50;99.90;;;;;;5111136;28;20032;-66
2022/05/03 12:25:53;;;;;;;17.25;5.43;;;12.50;99.90;;;;;;5111036;28;20046;-66
2022/05/03 12:28:20;;;;;;;15.82;3.92;;;12.60;99.90;;;;;;5100510;28;20051;-66
2022/05/03 12:30:55;;;;;;;14.38;4.65;;;12.60;99.90;;;;;;5089595;28;20055;-66
2022/05/03 12:33:21;;;;;;;13.50;4.38;;;12.60;99.90;;;;;;5089904;28;20040;-66
2022/05/03 12:35:47;;;;;;;18.67;4.05;;;12.70;99.90;;;;;;5090655;28;20036;-66
2022/05/03 12:38:16;;;;;;;12.80;4.20;;;12.80;99.90;;;;;;5090014;28;20044;-66
2022/05/03 12:40:46;;;;;;;22.38;5.72;;;12.80;99.90;;;;;;5089305;28;20036;-66
2022/05/03 12:43:17;;;;;;;15.02;5.05;;;12.90;99.90;;;;;;5089796;28;20382;-65
2022/05/03 12:46:00;;;;;;;17.10;4.63;;;12.80;99.90;;;;;;5070436;28;20044;-65
2022/05/03 12:48:27;;;;;;;13.07;4.45;;;12.80;99.90;;;;;;5094227;28;20046;-68
2022/05/03 12:50:55;;;;;;;13.27;4.22;;;12.90;99.90;;;;;;5110542;28;20415;-65
2022/05/03 12:53:28;;;;;;;16.42;4.57;;;12.90;99.90;;;;;;5110839;28;20373;-65
2022/05/03 12:55:56;;;;;;;10.80;4.07;;;12.90;99.90;;;;;;5110948;28;20039;-66
2022/05/03 12:58:21;;;;;;;15.27;4.30;;;12.90;99.90;;;;;;5110869;28;20458;-65
2022/05/03 13:00:55;;;;;;;15.55;4.20;;;12.90;99.90;;;;;;5110652;28;20127;-66
2022/05/03 13:03:24;;;;;;;17.13;4.00;;;12.90;99.90;;;;;;5110959;28;20031;-65
2022/05/03 13:05:50;;;;;;;12.32;3.90;;;13.00;99.90;;;;;;5110694;28;20531;-68
2022/05/03 13:08:19;;;;;;;15.43;4.18;;;13.00;99.90;;;;;;5092952;28;20092;-66
2022/05/03 13:10:45;;;;;;;9.63;4.03;;;13.20;99.90;;;;;;5111160;28;20041;-66
2022/05/03 13:13:12;;;;;;;20.05;5.47;;;13.30;99.90;;;;;;5111081;28;20512;-65
2022/05/03 13:15:38;;;;;;;17.90;4.15;;;13.50;99.90;;;;;;5111179;28;20485;-65
2022/05/03 13:18:05;;;;;;;17.20;3.92;;;13.80;99.90;;;;;;5110763;28;20407;-66
2022/05/03 13:20:30;;;;;;;11.82;3.92;;;13.60;99.90;;;;;;5110573;28;20396;-65
2022/05/03 13:22:57;;;;;;;10.93;4.30;;;13.70;99.90;;;;;;5110797;28;20028;-66
2022/05/03 13:25:23;;;;;;;13.40;4.70;;;13.80;99.90;;;;;;5112696;28;20065;-65
2022/05/03 13:27:49;;;;;;;11.35;3.97;;;13.90;99.90;;;;;;5114160;28;20032;-65
2022/05/03 13:30:16;;;;;;;10.82;3.95;;;14.10;99.90;;;;;;5113880;28;20491;-64